Time;durP1;ratioP1;P1;durP2;ratioP2;P2;SDS_P1;SDS_P2;PMS_P1;PMS_P2;Temp;Humidity;BMP_temperature;BMP_pressure;BME280_temperature;BME280_humidity;BME280_pressure;Samples;Min_cycle;Max_cycle;Signal;HPM_P1;HPM_P2
2022/05/29 00:01:24;;;;;;;16.02;7.60;;;;;;;19.09;98.68;96465.41;5023861;28;20448;-61
2022/05/29 00:03:51;;;;;;;12.90;6.80;;;;;;;18.67;98.71;96409.56;5023330;28;20050;-62
2022/05/29 00:06:18;;;;;;;13.27;6.40;;;;;;;16.75;97.50;96113.06;5021456;28;20496;-61
2022/05/29 00:08:45;;;;;;;12.13;5.90;;;;;;;18.90;97.97;96452.25;5022927;28;20065;-62
2022/05/29 00:11:14;;;;;;;15.55;5.93;;;;;;;18.94;99.16;96452.94;5023131;28;20049;-61
2022/05/29 00:13:44;;;;;;;11.48;6.30;;;;;;;18.96;96.15;96470.13;5023299;28;20057;-62
2022/05/29 00:16:10;;;;;;;11.65;6.07;;;;;;;18.57;92.33;96405.78;5023318;28;20057;-62
2022/05/29 00:18:38;;;;;;;16.83;6.45;;;;;;;19.00;91.69;96468.03;5021871;28;20140;-62
2022/05/29 00:21:06;;;;;;;13.18;5.75;;;;;;;19.10;91.70;96455.75;5023063;28;20530;-62
2022/05/29 00:23:40;;;;;;;11.57;6.18;;;;;;;19.01;91.61;96435.94;5037951;28;20505;-61
2022/05/29 00:26:07;;;;;;;11.07;5.90;;;;;;;19.07;92.61;96444.59;5021451;28;20057;-61
2022/05/29 00:28:34;;;;;;;11.25;6.35;;;;;;;17.89;93.87;96259.22;5038055;28;20100;-61
2022/05/29 00:31:01;;;;;;;14.05;7.28;;;;;;;19.01;94.67;96435.94;5037652;28;20236;-62
2022/05/29 00:33:27;;;;;;;18.55;7.25;;;;;;;19.18;96.15;96445.91;5023035;28;20045;-61
2022/05/29 00:35:54;;;;;;;12.32;7.47;;;;;;;18.81;96.59;96356.66;5023095;28;20057;-61
2022/05/29 00:38:21;;;;;;;12.40;7.50;;;;;;;19.00;96.21;96372.56;5023720;28;20049;-62
2022/05/29 00:41:06;;;;;;;16.88;6.75;;;;;;;19.30;95.36;96408.69;5026570;28;20500;-61
2022/05/29 00:43:32;;;;;;;16.63;7.95;;;;;;;19.32;93.53;96395.00;5026412;28;20053;-61
2022/05/29 00:46:01;;;;;;;16.15;7.80;;;;;;;19.36;94.19;96401.28;5026222;28;20057;-63
2022/05/29 00:48:28;;;;;;;14.88;7.93;;;;;;;19.37;94.12;96380.41;5024427;28;20061;-61
2022/05/29 00:50:59;;;;;;;12.30;7.18;;;;;;;18.97;93.52;96317.31;5025498;28;20569;-62
2022/05/29 00:53:28;;;;;;;13.60;6.95;;;;;;;19.22;93.81;96345.50;5026264;28;20049;-61
2022/05/29 00:56:09;;;;;;;11.73;6.55;;;;;;;19.04;93.51;96331.19;5040969;28;20049;-61
2022/05/29 00:58:36;;;;;;;15.70;6.40;;;;;;;19.28;92.89;96340.94;5041511;28;20053;-61
2022/05/29 01:01:03;;;;;;;16.05;7.82;;;;;;;18.78;93.18;96259.31;5025049;28;20064;-61
2022/05/29 01:03:30;;;;;;;12.75;6.78;;;;;;;19.28;93.01;96342.97;5026577;28;20050;-62
2022/05/29 01:05:57;;;;;;;14.65;7.10;;;;;;;19.27;92.24;96364.63;5026236;28;20176;-61
2022/05/29 01:08:36;;;;;;;15.27;6.53;;;;;;;18.39;96.65;96351.31;5026358;28;20127;-61
2022/05/29 01:11:17;;;;;;;14.15;6.65;;;;;;;18.23;100.00;96374.50;5026150;28;20530;-61
2022/05/29 01:13:55;;;;;;;17.10;6.50;;;;;;;18.17;100.00;96393.06;5024374;28;20147;-61
2022/05/29 01:16:34;;;;;;;17.95;7.18;;;;;;;18.32;99.96;96388.69;5041107;28;20057;-62
2022/05/29 01:19:24;;;;;;;13.85;7.10;;;;;;;18.46;99.34;96371.59;5026150;28;20114;-62
2022/05/29 01:22:23;;;;;;;12.73;6.57;;;;;;;18.29;97.47;96372.75;5016712;28;20049;-61
2022/05/29 01:25:27;;;;;;;14.50;6.78;;;;;;;18.46;97.92;96394.03;5012527;28;20056;-61
2022/05/29 01:28:09;;;;;;;12.73;6.45;;;;;;;18.45;95.64;96381.22;5025622;28;20064;-61
2022/05/29 01:30:51;;;;;;;15.63;6.93;;;;;;;17.98;96.51;96296.63;5025471;28;20130;-61
2022/05/29 01:33:48;;;;;;;14.35;6.70;;;;;;;18.34;98.07;96380.66;5026277;28;20491;-61
2022/05/29 01:36:37;;;;;;;12.90;6.72;;;;;;;18.46;98.17;96382.81;5025854;28;20059;-62
2022/05/29 01:39:16;;;;;;;17.35;7.40;;;;;;;18.70;97.13;96403.84;5025380;28;20053;-63
2022/05/29 01:41:53;;;;;;;13.77;7.38;;;;;;;18.73;95.95;96425.41;5023818;28;20064;-62
2022/05/29 01:44:23;;;;;;;16.75;6.78;;;;;;;18.85;94.81;96438.75;5013406;28;20072;-61
2022/05/29 01:47:02;;;;;;;15.52;7.00;;;;;;;18.84;95.23;96430.75;5023966;28;20053;-61
2022/05/29 01:49:37;;;;;;;11.73;6.25;;;;;;;18.84;95.75;96442.00;5025197;28;20053;-61
2022/05/29 01:52:12;;;;;;;13.82;7.20;;;;;;;18.84;95.74;96442.75;5025330;28;20057;-61
2022/05/29 01:54:57;;;;;;;11.13;6.95;;;;;;;18.77;95.37;96454.19;5025115;28;20064;-61
2022/05/29 01:57:33;;;;;;;13.02;6.78;;;;;;;18.36;97.04;96420.28;5025499;28;20409;-62
2022/05/29 02:00:05;;;;;;;13.27;6.75;;;;;;;18.48;98.48;96464.47;5025077;28;20057;-61
2022/05/29 02:02:51;;;;;;;12.80;6.97;;;;;;;18.52;100.00;96459.59;5023603;28;20045;-62
2022/05/29 02:05:24;;;;;;;16.65;7.70;;;;;;;18.03;100.00;96391.41;5024975;28;20050;-63
2022/05/29 02:07:59;;;;;;;16.30;8.00;;;;;;;18.47;100.00;96457.31;5023933;28;20076;-61
2022/05/29 02:10:43;;;;;;;11.00;7.55;;;;;;;18.45;100.00;96448.53;5039719;28;20049;-63
2022/05/29 02:13:25;;;;;;;14.10;7.13;;;;;;;18.40;100.00;96439.84;5024822;28;20471;-63
2022/05/29 02:16:03;;;;;;;17.67;7.47;;;;;;;18.18;100.00;96444.34;5024600;28;20053;-63
2022/05/29 02:18:44;;;;;;;16.95;8.23;;;;;;;18.19;100.00;96446.72;5039765;28;20131;-62
2022/05/29 02:21:19;;;;;;;19.63;8.52;;;;;;;17.93;100.00;96456.88;5024659;28;20053;-63
2022/05/29 02:23:52;;;;;;;11.65;6.38;;;;;;;17.48;100.00;96427.00;5024629;28;20061;-61
2022/05/29 02:26:22;;;;;;;14.50;7.20;;;;;;;17.01;100.00;96364.69;5023221;28;20062;-63
2022/05/29 02:28:59;;;;;;;11.73;6.28;;;;;;;17.72;100.00;96501.34;5024266;28;20049;-62
2022/05/29 02:31:38;;;;;;;14.48;6.22;;;;;;;17.57;100.00;96502.84;5024035;28;20096;-62
2022/05/29 02:34:18;;;;;;;13.73;6.38;;;;;;;17.69;100.00;96513.38;5024339;28;20084;-62
2022/05/29 02:36:57;;;;;;;15.27;6.40;;;;;;;17.73;100.00;96523.34;5023215;28;20432;-62
2022/05/29 02:39:33;;;;;;;11.88;5.78;;;;;;;17.84;100.00;96548.34;5004718;28;20053;-63
2022/05/29 02:42:14;;;;;;;15.73;6.00;;;;;;;17.88;100.00;96554.66;5002911;28;20054;-62
2022/05/29 02:44:47;;;;;;;12.38;6.18;;;;;;;18.00;100.00;96556.84;5004838;28;20084;-62
2022/05/29 02:47:29;;;;;;;11.48;6.95;;;;;;;18.05;100.00;96564.75;5004649;28;20069;-62
2022/05/29 02:50:28;;;;;;;15.93;7.32;;;;;;;18.08;100.00;96572.28;5004362;28;20053;-63
2022/05/29 02:52:58;;;;;;;13.27;6.10;;;;;;;17.53;100.00;96558.13;4970558;28;20049;-61
2022/05/29 02:55:26;;;;;;;14.68;6.75;;;;;;;17.20;100.00;96519.91;5002741;28;20058;-62
2022/05/29 02:57:59;;;;;;;19.85;8.63;;;;;;;17.06;100.00;96531.31;5004898;28;20053;-61
2022/05/29 03:00:30;;;;;;;;;;;;;;;17.06;100.00;96545.28;5004902;28;20060;-62
2022/05/29 03:03:35;;;;;;;13.93;7.35;;;;;;;17.16;100.00;96561.13;5003955;28;20320;-61
2022/05/29 03:06:14;;;;;;;23.92;8.30;;;;;;;17.23;100.00;96569.44;4974230;28;20058;-61
2022/05/29 03:08:43;;;;;;;23.13;8.18;;;;;;;17.18;100.00;96562.28;5003076;28;20591;-62
2022/05/29 03:11:29;;;;;;;12.27;7.18;;;;;;;16.95;100.00;96530.69;5003924;28;20072;-62
2022/05/29 03:14:05;;;;;;;12.25;7.07;;;;;;;17.11;100.00;96578.41;5004219;28;20658;-62
2022/05/29 03:16:31;;;;;;;17.42;8.05;;;;;;;17.28;100.00;96588.50;5004081;28;20049;-61
2022/05/29 03:19:07;;;;;;;12.57;7.25;;;;;;;17.34;100.00;96592.44;5003941;28;20065;-61
2022/05/29 03:22:05;;;;;;;16.73;7.35;;;;;;;16.98;100.00;96530.63;5004324;28;20061;-61
2022/05/29 03:24:59;;;;;;;16.25;8.02;;;;;;;17.33;100.00;96562.84;4996889;28;20080;-62
2022/05/29 03:27:37;;;;;;;16.38;8.20;;;;;;;16.98;100.00;96485.06;5003752;28;20428;-63
2022/05/29 03:30:26;;;;;;;18.77;8.07;;;;;;;17.36;100.00;96545.19;5003652;28;20060;-61
2022/05/29 03:32:56;;;;;;;15.70;7.63;;;;;;;17.00;100.00;96533.00;5003483;28;20049;-62
2022/05/29 03:35:33;;;;;;;19.92;10.27;;;;;;;16.44;100.00;96501.91;5003301;28;20088;-61
2022/05/29 03:38:01;;;;;;;17.95;8.35;;;;;;;16.34;100.00;96472.06;5012263;28;20566;-61
2022/05/29 03:40:30;;;;;;;19.30;8.88;;;;;;;16.98;100.00;96569.00;5021825;28;20057;-62
2022/05/29 03:42:57;;;;;;;19.85;9.25;;;;;;;17.06;100.00;96565.69;5023324;28;20498;-62
2022/05/29 03:45:25;;;;;;;15.85;9.10;;;;;;;17.17;100.00;96565.50;5023675;28;20072;-62
2022/05/29 03:47:52;;;;;;;18.10;8.68;;;;;;;17.14;100.00;96543.97;5023192;28;20520;-62
2022/05/29 03:50:21;;;;;;;15.07;8.20;;;;;;;17.23;100.00;96555.44;5023415;28;20064;-62
2022/05/29 03:52:48;;;;;;;15.77;8.60;;;;;;;17.24;100.00;96565.41;5023155;28;20101;-62
2022/05/29 03:55:17;;;;;;;15.35;7.18;;;;;;;17.18;100.00;96550.31;5023179;28;20061;-60
2022/05/29 03:57:44;;;;;;;19.60;8.73;;;;;;;17.01;100.00;96495.44;5022294;28;20049;-63
2022/05/29 04:00:11;;;;;;;13.27;7.15;;;;;;;17.29;100.00;96522.94;5022393;28;20474;-61
2022/05/29 04:02:41;;;;;;;16.77;7.45;;;;;;;17.33;100.00;96518.03;5022105;28;20057;-61
2022/05/29 04:05:09;;;;;;;16.85;7.18;;;;;;;17.33;100.00;96518.84;5022844;28;20050;-61
2022/05/29 04:13:08;;;;;;;15.73;7.97;;;;;;;17.13;100.00;96514.41;5023927;28;20068;-61
2022/05/29 04:15:36;;;;;;;22.20;7.25;;;;;;;17.07;100.00;96505.69;5025560;28;20061;-61
2022/05/29 04:18:04;;;;;;;12.13;6.95;;;;;;;17.10;100.00;96504.88;5042212;28;20049;-62
2022/05/29 04:20:31;;;;;;;17.70;6.90;;;;;;;17.16;100.00;96497.56;5042541;28;20053;-62
2022/05/29 04:22:57;;;;;;;16.02;6.75;;;;;;;17.02;100.00;96452.22;5027095;28;20440;-61
2022/05/29 04:25:24;;;;;;;13.57;6.88;;;;;;;17.27;100.00;96469.38;5026419;28;20060;-62
2022/05/29 04:27:51;;;;;;;15.23;6.80;;;;;;;17.29;100.00;96445.31;5027612;28;20054;-61
2022/05/29 04:30:18;;;;;;;12.13;7.00;;;;;;;17.42;100.00;96434.28;5025014;28;20049;-61
2022/05/29 04:33:00;;;;;;;16.63;7.47;;;;;;;17.52;100.00;96430.50;5026514;28;20089;-61
2022/05/29 04:35:36;;;;;;;17.50;6.78;;;;;;;17.53;100.00;96434.91;5024886;28;20057;-61
2022/05/29 04:38:04;;;;;;;14.38;6.65;;;;;;;17.62;100.00;96435.13;5041764;28;20059;-62
2022/05/29 04:40:31;;;;;;;16.95;7.38;;;;;;;17.80;100.00;96435.53;5026476;28;20053;-61
2022/05/29 04:42:58;;;;;;;15.77;7.25;;;;;;;18.04;100.00;96417.41;5024830;28;20057;-61
2022/05/29 04:45:26;;;;;;;12.02;6.43;;;;;;;18.10;100.00;96418.47;5026570;28;20053;-61
2022/05/29 04:47:53;;;;;;;18.48;6.97;;;;;;;18.25;100.00;96405.72;5025832;28;20511;-62
2022/05/29 04:50:20;;;;;;;14.70;6.88;;;;;;;18.37;100.00;96413.44;5026342;28;20395;-62
2022/05/29 04:52:47;;;;;;;11.95;6.95;;;;;;;18.25;100.00;96377.66;5026077;28;20076;-62
2022/05/29 04:55:13;;;;;;;14.90;7.68;;;;;;;18.43;100.00;96405.31;5025921;28;20058;-61
2022/05/29 04:57:41;;;;;;;12.57;7.28;;;;;;;18.50;100.00;96411.56;5026444;28;20053;-62
2022/05/29 05:00:09;;;;;;;16.02;6.63;;;;;;;19.10;100.00;96443.72;5026499;28;20112;-62
2022/05/29 05:02:36;;;;;;;15.80;7.38;;;;;;;19.24;100.00;96399.22;5026235;28;20056;-62
2022/05/29 05:05:04;;;;;;;10.68;5.85;;;;;;;19.72;100.00;96434.03;5026114;28;20053;-61
2022/05/29 05:07:30;;;;;;;10.82;5.57;;;;;;;19.90;98.26;96437.13;5025817;28;20057;-63
2022/05/29 05:09:57;;;;;;;10.20;5.78;;;;;;;20.11;98.03;96439.28;5040924;28;20049;-61
2022/05/29 05:12:24;;;;;;;14.10;6.88;;;;;;;20.17;97.67;96403.81;5025442;28;20065;-62
2022/05/29 05:14:50;;;;;;;9.85;6.03;;;;;;;20.50;96.01;96433.31;5026090;28;20057;-62
2022/05/29 05:17:17;;;;;;;13.20;6.32;;;;;;;20.59;94.82;96430.59;5026230;28;20507;-63
2022/05/29 05:19:44;;;;;;;15.00;5.82;;;;;;;20.93;94.20;96439.13;5025919;28;20079;-61
2022/05/29 05:22:10;;;;;;;17.08;6.10;;;;;;;21.09;92.47;96436.19;5025849;28;20053;-62
2022/05/29 05:24:38;;;;;;;14.15;6.13;;;;;;;21.22;92.68;96425.69;5023452;28;20045;-61
2022/05/29 05:27:07;;;;;;;15.68;6.85;;;;;;;21.28;91.35;96418.22;5025407;28;20231;-62
2022/05/29 05:29:41;;;;;;;16.90;7.18;;;;;;;21.47;89.41;96422.78;5025437;28;20049;-61
2022/05/29 05:32:07;;;;;;;12.32;6.40;;;;;;;21.67;90.17;96420.44;5025052;28;20058;-61
2022/05/29 05:34:34;;;;;;;13.60;6.53;;;;;;;21.80;88.79;96412.75;5025592;28;20146;-61
2022/05/29 05:37:01;;;;;;;11.27;6.03;;;;;;;21.96;88.07;96415.34;5025225;28;20495;-62
2022/05/29 05:39:28;;;;;;;12.82;6.07;;;;;;;22.05;86.86;96404.13;5040298;28;20049;-62
2022/05/29 05:41:55;;;;;;;14.10;5.72;;;;;;;22.12;84.37;96395.41;5040731;28;20068;-63
2022/05/29 05:44:21;;;;;;;9.75;6.30;;;;;;;22.41;83.42;96424.06;5025230;28;20076;-63
2022/05/29 05:46:53;;;;;;;12.85;6.55;;;;;;;22.55;81.04;96421.97;5025308;28;20053;-62
2022/05/29 05:49:26;;;;;;;13.00;6.85;;;;;;;22.52;81.39;96414.44;5039342;28;20532;-62
2022/05/29 05:51:55;;;;;;;13.80;7.43;;;;;;;21.79;86.23;96422.47;5040032;28;20057;-62
2022/05/29 05:54:21;;;;;;;15.82;7.53;;;;;;;21.57;87.84;96413.16;5024830;28;20049;-63
2022/05/29 05:56:52;;;;;;;11.57;6.85;;;;;;;22.09;83.86;96418.09;5025100;28;20054;-63
2022/05/29 05:59:18;;;;;;;14.60;7.05;;;;;;;22.10;84.98;96420.47;5025677;28;20056;-63
2022/05/29 06:01:45;;;;;;;15.00;6.80;;;;;;;22.27;84.52;96419.00;5025066;28;20053;-63
2022/05/29 06:04:12;;;;;;;12.50;7.25;;;;;;;22.35;82.52;96425.94;5024603;28;20412;-62
2022/05/29 06:06:39;;;;;;;10.20;6.57;;;;;;;22.43;80.76;96432.88;5024827;28;20049;-62
2022/05/29 06:09:06;;;;;;;18.88;6.97;;;;;;;21.99;78.79;96335.47;5040038;28;20060;-62
2022/05/29 06:11:33;;;;;;;13.60;6.68;;;;;;;23.08;77.73;96426.25;5025357;28;20068;-63
2022/05/29 06:14:00;;;;;;;15.95;7.53;;;;;;;22.81;78.64;96390.22;5024646;28;20054;-63
2022/05/29 06:16:26;;;;;;;14.20;6.80;;;;;;;23.40;76.61;96431.34;5025008;28;20435;-62
2022/05/29 06:18:53;;;;;;;17.20;7.15;;;;;;;23.75;74.28;96446.78;5024731;28;20600;-62
2022/05/29 06:21:20;;;;;;;10.15;7.10;;;;;;;23.83;71.08;96443.16;5023082;28;20077;-62
2022/05/29 06:23:47;;;;;;;11.75;6.70;;;;;;;23.81;68.04;96440.03;5024227;28;20528;-62
2022/05/29 06:26:14;;;;;;;11.93;7.63;;;;;;;23.87;72.13;96432.47;5024401;28;20049;-62
2022/05/29 06:28:41;;;;;;;13.80;7.15;;;;;;;23.13;73.31;96432.06;5039592;28;20057;-62
2022/05/29 06:31:11;;;;;;;8.07;6.78;;;;;;;23.66;72.91;96449.59;5023946;28;20057;-62
2022/05/29 06:33:38;;;;;;;13.82;7.70;;;;;;;24.01;70.16;96439.56;5024751;28;20498;-59
2022/05/29 06:36:11;;;;;;;15.13;7.15;;;;;;;24.09;70.36;96448.53;5023771;28;20049;-60
2022/05/29 06:38:37;;;;;;;11.77;6.85;;;;;;;23.95;63.38;96381.22;5024453;28;20054;-62
2022/05/29 06:41:06;;;;;;;12.68;6.43;;;;;;;24.31;63.54;96432.88;5022475;28;20409;-62
2022/05/29 06:43:33;;;;;;;10.70;6.35;;;;;;;24.14;65.05;96365.81;5024417;28;20049;-62
2022/05/29 06:46:01;;;;;;;6.88;6.00;;;;;;;24.65;65.68;96428.88;5024129;28;20478;-60
2022/05/29 06:48:29;;;;;;;9.40;6.32;;;;;;;24.10;65.70;96445.22;5022765;28;20122;-59
2022/05/29 06:50:56;;;;;;;14.77;6.97;;;;;;;22.29;70.39;96413.69;5022294;28;20507;-58
2022/05/29 06:53:23;;;;;;;10.48;6.40;;;;;;;22.64;72.60;96453.06;5024342;28;20049;-60
2022/05/29 06:55:54;;;;;;;11.55;7.32;;;;;;;23.30;71.22;96429.78;5024133;28;20057;-59
2022/05/29 06:58:22;;;;;;;14.18;6.85;;;;;;;23.16;68.37;96404.91;5024498;28;20053;-59
2022/05/29 07:09:10;;;;;;;22.15;9.23;;;;;;;23.10;71.85;96468.94;5023918;28;20072;-63
2022/05/29 07:11:41;;;;;;;48.05;16.35;;;;;;;23.18;73.71;96408.03;5024083;28;20057;-62
2022/05/29 07:14:08;;;;;;;27.58;12.70;;;;;;;23.92;72.10;96459.34;5023915;28;20049;-62
2022/05/29 07:16:37;;;;;;;13.93;7.40;;;;;;;23.83;72.63;96465.00;5023493;28;20057;-62
2022/05/29 07:19:04;;;;;;;16.60;8.82;;;;;;;23.11;74.44;96419.66;5023470;28;20060;-62
2022/05/29 07:21:37;;;;;;;44.20;18.38;;;;;;;23.75;73.48;96441.13;5022425;28;20045;-61
2022/05/29 07:24:05;;;;;;;19.67;9.00;;;;;;;23.88;72.34;96450.25;5022097;28;20061;-62
2022/05/29 07:26:31;;;;;;;15.55;8.77;;;;;;;23.35;71.61;96383.91;5023382;28;20057;-62
2022/05/29 07:28:58;;;;;;;9.48;6.75;;;;;;;22.98;76.20;96462.19;5022713;28;20046;-61
2022/05/29 07:31:25;;;;;;;26.10;10.90;;;;;;;23.27;78.20;96456.13;5022777;28;20062;-63
2022/05/29 07:33:52;;;;;;;33.80;12.90;;;;;;;23.75;74.38;96469.41;5023128;28;20570;-63
2022/05/29 07:36:19;;;;;;;21.40;8.20;;;;;;;23.66;73.64;96466.56;5023104;28;20060;-61
2022/05/29 07:38:45;;;;;;;18.85;9.80;;;;;;;23.47;73.95;96402.78;5022877;28;20084;-62
2022/05/29 07:43:59;;;;;;;29.42;10.27;;;;;;;23.28;74.47;96498.09;5023356;28;20049;-62
2022/05/29 07:46:25;;;;;;;51.65;18.60;;;;;;;23.67;74.87;96479.44;5021247;28;20094;-64
2022/05/29 07:48:52;;;;;;;22.88;10.05;;;;;;;23.29;76.00;96481.91;5026685;28;20607;-63
2022/05/29 07:51:19;;;;;;;17.17;8.57;;;;;;;22.64;78.93;96479.28;5025429;28;20054;-63
2022/05/29 07:53:46;;;;;;;26.38;11.07;;;;;;;23.01;79.06;96477.41;5027253;28;20431;-63
2022/05/29 07:56:16;;;;;;;12.75;7.80;;;;;;;22.43;80.66;96478.03;5027076;28;20061;-63
2022/05/29 07:58:44;;;;;;;13.07;7.05;;;;;;;22.36;81.16;96471.88;5027248;28;20045;-62
2022/05/29 08:01:11;;;;;;;10.57;7.22;;;;;;;22.68;77.23;96414.19;5026114;28;20068;-63
2022/05/29 08:03:38;;;;;;;16.35;10.30;;;;;;;23.40;77.80;96470.94;5027459;28;20527;-63
2022/05/29 08:06:05;;;;;;;14.82;7.07;;;;;;;23.44;74.39;96468.75;5020920;28;20608;-63
2022/05/29 08:08:32;;;;;;;15.30;10.20;;;;;;;23.11;72.93;96402.72;5027511;28;20516;-63
2022/05/29 08:10:59;;;;;;;8.23;7.03;;;;;;;22.68;76.43;96467.84;5027185;28;20064;-62
2022/05/29 08:13:26;;;;;;;11.07;7.07;;;;;;;23.01;75.48;96451.97;5026927;28;20113;-61
2022/05/29 08:15:52;;;;;;;13.40;7.03;;;;;;;22.91;75.71;96451.16;5026731;28;20053;-63
2022/05/29 08:18:19;;;;;;;10.32;6.97;;;;;;;24.04;73.46;96444.28;5027491;28;20114;-63
2022/05/29 08:20:46;;;;;;;10.05;7.03;;;;;;;24.46;70.52;96402.66;5025220;28;20420;-61
2022/05/29 08:23:14;;;;;;;10.55;8.07;;;;;;;23.61;73.87;96441.75;5026894;28;20072;-63
2022/05/29 08:31:28;;;;;;;12.20;7.45;;;;;;;24.56;69.04;96446.69;4964637;28;20065;-63
2022/05/29 08:33:55;;;;;;;10.68;7.53;;;;;;;24.83;68.09;96446.59;5013891;28;20068;-64
2022/05/29 08:36:25;;;;;;;12.63;7.65;;;;;;;25.15;68.06;96440.16;5026198;28;20860;-63
2022/05/29 08:38:56;;;;;;;12.75;7.63;;;;;;;25.27;66.15;96413.63;5026645;28;20065;-64
2022/05/29 08:41:33;;;;;;;12.30;7.25;;;;;;;25.06;64.10;96343.84;5026566;28;20052;-62
2022/05/29 08:44:07;;;;;;;14.00;7.75;;;;;;;25.46;65.63;96439.06;5026577;28;20497;-63
2022/05/29 08:46:38;;;;;;;;;;;;;;;26.01;64.05;96449.53;5027084;28;20104;-64
2022/05/29 08:49:07;;;;;;;11.68;7.95;;;;;;;25.28;64.29;96448.41;5024951;28;19928;-62
2022/05/29 08:51:36;;;;;;;12.65;7.70;;;;;;;25.59;63.96;96445.25;5026324;28;20080;-63
2022/05/29 08:54:16;;;;;;;13.52;7.68;;;;;;;25.44;64.14;96447.25;5024570;28;20511;-63
2022/05/29 08:57:04;;;;;;;13.00;8.48;;;;;;;25.83;62.00;96437.53;5026482;28;20049;-64
2022/05/29 08:59:39;;;;;;;14.98;8.85;;;;;;;25.95;63.31;96433.63;5025431;28;20060;-63
2022/05/29 09:02:34;;;;;;;11.27;8.13;;;;;;;25.55;63.97;96430.47;5026077;28;20061;-60
2022/05/29 09:05:09;;;;;;;11.80;7.97;;;;;;;24.85;64.84;96412.91;5025539;28;20538;-62
2022/05/29 09:07:39;;;;;;;10.55;8.02;;;;;;;25.05;65.02;96410.28;5026174;28;20057;-64
2022/05/29 09:10:21;;;;;;;8.18;6.93;;;;;;;25.85;62.77;96423.59;5025510;28;20060;-61
2022/05/29 09:12:52;;;;;;;9.43;7.55;;;;;;;25.87;61.71;96416.19;5025799;28;20042;-61
2022/05/29 09:15:41;;;;;;;10.57;8.38;;;;;;;26.36;61.02;96415.56;5025956;28;20045;-62
2022/05/29 09:18:13;;;;;;;13.15;8.02;;;;;;;25.80;58.58;96331.41;5026177;28;20162;-62
2022/05/29 09:20:52;;;;;;;13.05;8.23;;;;;;;26.00;61.53;96413.09;5025563;28;20477;-62
2022/05/29 09:23:28;;;;;;;15.20;8.15;;;;;;;26.50;57.95;96406.25;5026178;28;20523;-62
2022/05/29 09:25:56;;;;;;;10.10;8.40;;;;;;;26.73;57.69;96399.69;5025635;28;20060;-62
2022/05/29 09:28:32;;;;;;;11.85;8.68;;;;;;;26.75;57.14;96394.31;5025852;28;20053;-62
2022/05/29 09:31:18;;;;;;;12.63;8.57;;;;;;;26.47;58.89;96395.88;5025441;28;20065;-62
2022/05/29 09:33:46;;;;;;;12.77;7.75;;;;;;;26.28;58.41;96395.31;5026220;28;20107;-62
2022/05/29 09:36:34;;;;;;;14.23;7.80;;;;;;;26.78;57.41;96384.78;5025776;28;20745;-62
2022/05/29 09:39:09;;;;;;;11.38;8.30;;;;;;;26.92;57.98;96375.44;5025043;28;20176;-63
2022/05/29 09:41:52;;;;;;;8.82;7.78;;;;;;;27.62;56.11;96359.88;5025695;28;20057;-62
2022/05/29 09:44:21;;;;;;;15.73;7.55;;;;;;;28.29;53.07;96354.91;5025035;28;20053;-62
2022/05/29 09:46:52;;;;;;;13.70;9.15;;;;;;;28.76;49.81;96360.78;5025450;28;20437;-63
2022/05/29 09:52:14;;;;;;;16.13;7.55;;;;;;;29.22;46.58;96323.50;5025408;28;20064;-62
2022/05/29 09:54:51;;;;;;;13.43;8.20;;;;;;;29.62;47.00;96354.56;5025607;28;20084;-63
2022/05/29 09:57:30;;;;;;;10.27;7.60;;;;;;;29.01;48.76;96342.78;5023286;28;20053;-63
2022/05/29 10:00:12;;;;;;;12.40;7.85;;;;;;;29.43;48.10;96345.63;5040048;28;20061;-62
2022/05/29 10:02:42;;;;;;;13.27;8.15;;;;;;;29.56;47.18;96342.31;5025014;28;20127;-62
2022/05/29 10:05:22;;;;;;;13.30;7.85;;;;;;;29.54;47.30;96344.91;5024692;28;20144;-61
2022/05/29 10:07:49;;;;;;;17.40;10.02;;;;;;;29.52;45.98;96336.06;5039527;28;20574;-62
2022/05/29 10:10:25;;;;;;;14.57;8.30;;;;;;;29.39;46.66;96332.91;5024456;28;20053;-62
2022/05/29 10:12:54;;;;;;;9.45;7.07;;;;;;;29.75;46.77;96329.16;5024588;28;20091;-62
2022/05/29 10:15:26;;;;;;;14.25;7.43;;;;;;;29.92;46.01;96324.31;5024513;28;20251;-62
2022/05/29 10:17:58;;;;;;;8.88;7.63;;;;;;;30.08;46.10;96320.69;5024430;28;20068;-63
2022/05/29 10:20:38;;;;;;;9.95;7.15;;;;;;;29.84;46.31;96311.81;5024413;28;20049;-62
2022/05/29 10:23:09;;;;;;;13.10;7.68;;;;;;;28.77;45.59;96144.88;5024543;28;20045;-62
2022/05/29 10:25:40;;;;;;;12.27;6.80;;;;;;;29.76;45.49;96272.84;5024547;28;20045;-61
2022/05/29 10:28:16;;;;;;;9.38;7.10;;;;;;;30.21;46.13;96294.50;5024363;28;20103;-61
2022/05/29 10:30:56;;;;;;;13.88;9.45;;;;;;;30.49;44.01;96315.28;5024469;28;20050;-62
2022/05/29 10:33:26;;;;;;;13.18;8.30;;;;;;;30.47;44.17;96304.38;5039876;28;20073;-61
2022/05/29 10:36:02;;;;;;;14.35;8.80;;;;;;;30.12;44.18;96286.13;5023180;28;20159;-61
2022/05/29 10:38:29;;;;;;;19.00;9.85;;;;;;;29.80;45.66;96288.44;5024256;28;20565;-61
2022/05/29 10:41:01;;;;;;;11.65;8.40;;;;;;;30.27;45.15;96298.91;5022696;28;20057;-62
2022/05/29 10:43:43;;;;;;;11.85;7.78;;;;;;;30.42;43.63;96288.00;5024318;28;20069;-62
2022/05/29 10:46:12;;;;;;;13.65;8.15;;;;;;;30.69;43.62;96281.47;5024388;28;20065;-61
2022/05/29 10:48:58;;;;;;;16.30;8.80;;;;;;;30.89;43.74;96275.47;5023803;28;20053;-61
2022/05/29 10:52:08;;;;;;;17.58;7.88;;;;;;;31.53;42.50;96264.88;5024335;28;20104;-60
2022/05/29 10:54:40;;;;;;;12.52;7.00;;;;;;;31.51;42.66;96261.75;5024114;28;20061;-60
2022/05/29 10:57:33;;;;;;;9.90;7.87;;;;;;;31.62;42.27;96259.59;5024098;28;20065;-63
2022/05/29 11:00:27;;;;;;;9.13;6.88;;;;;;;31.60;41.38;96259.34;5017434;28;20289;-65
2022/05/29 11:03:28;;;;;;;8.38;7.55;;;;;;;31.35;40.88;96249.06;5024076;28;20478;-62
2022/05/29 11:06:42;;;;;;;10.00;8.38;;;;;;;31.37;42.15;96235.00;5023391;28;20049;-63
2022/05/29 11:09:09;;;;;;;;;;;;;;;31.68;41.99;96225.97;5020372;28;20530;-63
2022/05/29 11:12:05;;;;;;;11.57;7.22;;;;;;;31.36;41.97;96222.00;5023654;28;19932;-63
2022/05/29 11:15:10;;;;;;;17.75;12.05;;;;;;;31.05;42.83;96221.59;5019548;28;20068;-63
2022/05/29 11:17:51;;;;;;;17.42;9.98;;;;;;;31.19;42.88;96211.91;5023326;28;20057;-64
2022/05/29 11:20:28;;;;;;;14.93;7.53;;;;;;;31.32;43.11;96215.00;5024382;28;20068;-63
2022/05/29 11:23:34;;;;;;;8.55;7.75;;;;;;;30.79;43.78;96205.53;5021648;28;20061;-63
2022/05/29 11:26:20;;;;;;;9.48;8.30;;;;;;;30.65;43.36;96198.03;5021206;28;20057;-62
2022/05/29 11:29:12;;;;;;;10.15;7.30;;;;;;;29.80;45.89;96184.84;5023261;28;20061;-63
2022/05/29 11:32:21;;;;;;;19.17;8.98;;;;;;;30.39;45.18;96174.72;5022728;28;20111;-62
2022/05/29 11:35:07;;;;;;;11.70;7.47;;;;;;;30.38;43.74;96172.38;5023469;28;20050;-63
2022/05/29 11:37:58;;;;;;;14.52;9.68;;;;;;;30.32;43.83;96175.22;5023366;28;20715;-62
2022/05/29 11:40:39;;;;;;;16.23;10.25;;;;;;;30.18;43.39;96116.25;5038493;28;20059;-61
2022/05/29 11:43:28;;;;;;;15.05;8.93;;;;;;;30.93;42.52;96167.28;5023301;28;20053;-62
2022/05/29 11:52:39;;;;;;;8.68;7.85;;;;;;;31.23;41.20;96103.63;5023409;28;20064;-62
2022/05/29 11:55:14;;;;;;;9.98;8.00;;;;;;;31.93;40.87;96166.72;5021290;28;20520;-63
2022/05/29 11:57:56;;;;;;;9.45;8.50;;;;;;;31.89;40.94;96163.34;5037969;28;20069;-62
2022/05/29 12:00:38;;;;;;;9.43;7.35;;;;;;;31.52;41.44;96146.66;5038121;28;20202;-65
2022/05/29 12:03:20;;;;;;;8.77;7.97;;;;;;;31.16;42.23;96115.66;5022999;28;20046;-65
2022/05/29 12:06:03;;;;;;;11.03;8.57;;;;;;;31.58;41.89;96152.38;5023244;28;20140;-64
2022/05/29 12:08:55;;;;;;;12.77;8.55;;;;;;;31.51;42.69;96147.19;5023019;28;20049;-66
2022/05/29 12:11:28;;;;;;;12.55;8.25;;;;;;;31.08;43.22;96152.63;5021788;28;20057;-63
2022/05/29 12:14:12;;;;;;;10.85;8.52;;;;;;;30.79;42.65;96067.50;5038415;28;20451;-64
2022/05/29 12:16:42;;;;;;;13.15;7.95;;;;;;;31.29;43.13;96155.91;5023479;28;20053;-65
2022/05/29 12:19:17;;;;;;;16.40;8.77;;;;;;;31.67;42.46;96109.06;5023491;28;20080;-63
2022/05/29 12:21:52;;;;;;;13.13;8.35;;;;;;;31.93;41.75;96144.56;5022881;28;20060;-64
2022/05/29 12:24:46;;;;;;;12.57;7.68;;;;;;;31.92;41.48;96151.59;5021209;28;20060;-64
2022/05/29 12:27:19;;;;;;;13.07;8.30;;;;;;;32.42;40.61;96139.69;5013254;28;20060;-64